createdAt,value
2023-03-06T00:00:59.899Z,1.02
2023-03-06T00:03:28.248Z,1.85
2023-03-06T00:05:57.644Z,1.75
2023-03-06T00:08:52.670Z,0.65
2023-03-06T00:11:19.504Z,0.28
2023-03-06T00:13:46.432Z,1.10
2023-03-06T00:16:13.624Z,0.77
2023-03-06T00:18:40.566Z,3.22
2023-03-06T00:21:08.253Z,2.30
2023-03-06T00:23:36.448Z,6.28
2023-03-06T00:26:06.657Z,0.95
2023-03-06T00:28:33.794Z,2.17
2023-03-06T00:31:01.566Z,1.30
2023-03-06T00:33:28.778Z,0.40
2023-03-06T00:35:55.798Z,2.22
2023-03-06T00:38:23.607Z,1.05
2023-03-06T00:40:50.524Z,2.05
2023-03-06T00:43:17.346Z,1.80
2023-03-06T00:45:44.257Z,1.63
2023-03-06T00:48:11.420Z,0.38
2023-03-06T00:50:38.232Z,2.00
2023-03-06T00:53:05.016Z,1.85
2023-03-06T00:55:33.719Z,0.15
2023-03-06T00:58:00.623Z,0.70
2023-03-06T01:00:28.618Z,0.65
2023-03-06T01:02:56.383Z,1.35
2023-03-06T01:05:23.640Z,3.47
2023-03-06T01:07:50.743Z,4.45
2023-03-06T01:10:17.889Z,0.95
2023-03-06T01:12:45.833Z,1.23
2023-03-06T01:15:14.007Z,2.13
2023-03-06T01:17:40.958Z,2.53
2023-03-06T01:20:15.048Z,0.60
2023-03-06T01:22:42.255Z,4.70
2023-03-06T01:25:09.848Z,2.85
2023-03-06T01:27:36.631Z,2.05
2023-03-06T01:30:04.728Z,2.28
2023-03-06T01:32:33.805Z,2.40
2023-03-06T01:35:07.019Z,0.90
2023-03-06T01:37:36.525Z,0.57
2023-03-06T01:40:04.232Z,3.08
2023-03-06T01:42:32.202Z,2.92
2023-03-06T01:45:18.892Z,0.50
2023-03-06T01:47:47.328Z,1.45
2023-03-06T01:50:14.629Z,0.95
2023-03-06T01:52:54.334Z,2.58
2023-03-06T01:55:28.032Z,1.50
2023-03-06T01:58:01.852Z,3.03
2023-03-06T02:00:31.620Z,0.85
2023-03-06T02:03:08.568Z,3.45
2023-03-06T02:05:39.604Z,2.95
2023-03-06T02:08:10.934Z,3.22
2023-03-06T02:10:44.221Z,1.55
2023-03-06T02:13:11.172Z,1.75
2023-03-06T02:15:38.324Z,0.98
2023-03-06T02:18:05.386Z,1.50
2023-03-06T02:20:46.167Z,2.33
2023-03-06T02:23:40.302Z,2.67
2023-03-06T02:26:09.192Z,1.48
2023-03-06T02:28:35.956Z,5.07
2023-03-06T02:31:04.043Z,0.68
2023-03-06T02:33:32.722Z,0.90
2023-03-06T02:36:06.209Z,2.63
2023-03-06T02:38:51.600Z,1.73
2023-03-06T02:41:20.344Z,2.85
2023-03-06T02:43:51.458Z,4.13
2023-03-06T02:46:19.730Z,4.97
2023-03-06T02:48:46.792Z,2.28
2023-03-06T02:51:14.087Z,2.47
2023-03-06T02:53:42.064Z,4.72
2023-03-06T02:56:08.991Z,0.93
2023-03-06T02:58:36.575Z,5.18
2023-03-06T03:01:04.822Z,1.20
2023-03-06T03:03:33.736Z,2.50
2023-03-06T03:06:01.305Z,2.85
2023-03-06T03:08:32.287Z,4.25
2023-03-06T03:11:02.266Z,1.42
2023-03-06T03:13:37.856Z,5.28
2023-03-06T03:16:09.000Z,2.00
2023-03-06T03:18:36.216Z,3.50
2023-03-06T03:21:07.933Z,4.03
2023-03-06T03:23:35.231Z,4.22
2023-03-06T03:26:14.625Z,2.88
2023-03-06T03:28:45.702Z,2.95
2023-03-06T03:31:16.439Z,1.27
2023-03-06T03:33:44.179Z,1.60
2023-03-06T03:36:13.452Z,4.82
2023-03-06T03:41:11.830Z,1.17
2023-03-06T03:43:38.730Z,1.08
2023-03-06T03:46:06.551Z,2.10
2023-03-06T03:48:34.630Z,2.40
2023-03-06T03:51:16.824Z,0.88
2023-03-06T03:53:49.790Z,3.88
2023-03-06T03:56:20.479Z,1.05
2023-03-06T03:59:10.433Z,0.77
2023-03-06T04:01:46.164Z,3.50
2023-03-06T04:04:14.573Z,2.13
2023-03-06T04:06:43.368Z,0.70
2023-03-06T04:09:10.594Z,2.10
2023-03-06T04:11:38.726Z,2.78
2023-03-06T04:14:06.158Z,2.38
2023-03-06T04:16:33.419Z,0.90
2023-03-06T04:19:00.429Z,2.45
2023-03-06T04:21:27.454Z,2.55
2023-03-06T04:23:54.489Z,3.90
2023-03-06T04:26:21.652Z,1.50
2023-03-06T04:28:48.712Z,2.55
2023-03-06T04:31:16.691Z,1.88
2023-03-06T04:33:43.558Z,2.35
2023-03-06T04:36:25.616Z,2.03
2023-03-06T04:38:53.608Z,0.65
2023-03-06T04:41:20.847Z,1.63
2023-03-06T04:43:49.128Z,1.98
2023-03-06T04:46:16.066Z,1.13
2023-03-06T04:48:43.578Z,5.45
2023-03-06T04:51:12.738Z,4.68
2023-03-06T04:53:40.033Z,3.17
2023-03-06T04:56:07.661Z,1.45
2023-03-06T04:58:36.713Z,2.08
2023-03-06T05:01:04.648Z,2.55
2023-03-06T05:03:32.862Z,3.85
2023-03-06T05:05:59.969Z,6.28
2023-03-06T05:08:27.711Z,1.88
2023-03-06T05:10:57.716Z,2.30
2023-03-06T05:13:26.301Z,2.50
2023-03-06T05:15:53.261Z,3.78
2023-03-06T05:18:21.562Z,1.15
2023-03-06T05:20:48.339Z,5.05
2023-03-06T05:23:15.162Z,0.88
2023-03-06T05:25:42.767Z,2.67
2023-03-06T05:28:09.464Z,0.28
2023-03-06T05:30:36.728Z,2.10
2023-03-06T05:33:03.651Z,3.58
2023-03-06T05:35:30.863Z,4.20
2023-03-06T05:37:57.956Z,1.13
2023-03-06T05:40:24.956Z,1.63
2023-03-06T05:42:51.946Z,4.75
2023-03-06T05:45:19.017Z,3.95
2023-03-06T05:47:46.502Z,5.85
2023-03-06T05:50:14.938Z,1.42
2023-03-06T05:52:42.502Z,0.73
2023-03-06T05:55:12.326Z,0.75
2023-03-06T05:57:39.598Z,4.22
2023-03-06T06:00:07.250Z,2.10
2023-03-06T06:02:39.490Z,3.10
2023-03-06T06:05:07.270Z,2.22
2023-03-06T06:07:34.070Z,3.03
2023-03-06T06:10:03.552Z,1.75
2023-03-06T06:12:32.098Z,3.17
2023-03-06T06:14:58.926Z,2.55
2023-03-06T06:17:25.527Z,2.40
2023-03-06T06:19:52.474Z,5.30
2023-03-06T06:22:25.704Z,2.90
2023-03-06T06:24:52.334Z,4.20
2023-03-06T06:27:18.929Z,4.28
2023-03-06T06:29:45.863Z,2.45
2023-03-06T06:32:12.880Z,16.00
2023-03-06T06:34:39.864Z,6.65
2023-03-06T06:37:06.753Z,6.45
2023-03-06T06:39:33.666Z,5.63
2023-03-06T06:42:25.903Z,4.47
2023-03-06T06:44:48.941Z,5.57
2023-03-06T06:47:22.959Z,4.25
2023-03-06T06:49:53.107Z,4.97
2023-03-06T06:52:26.337Z,2.70
2023-03-06T06:54:53.653Z,2.28
2023-03-06T06:57:20.547Z,2.33
2023-03-06T06:59:47.625Z,2.58
2023-03-06T07:02:16.634Z,1.83
2023-03-06T07:05:00.408Z,3.88
2023-03-06T07:07:30.028Z,5.18
2023-03-06T07:10:01.970Z,3.85
2023-03-06T07:12:32.697Z,4.22
2023-03-06T07:15:08.231Z,2.25
2023-03-06T07:17:34.921Z,1.80
2023-03-06T07:20:08.996Z,2.95
2023-03-06T07:22:49.914Z,2.90
2023-03-06T07:25:17.630Z,4.10
2023-03-06T07:27:51.080Z,2.15
2023-03-06T07:30:20.799Z,5.13
2023-03-06T07:32:47.536Z,2.58
2023-03-06T07:35:21.996Z,3.50
2023-03-06T07:37:48.926Z,1.85
2023-03-06T07:40:16.174Z,1.58
2023-03-06T07:42:43.019Z,1.83
2023-03-06T07:45:24.492Z,3.28
2023-03-06T07:47:52.084Z,1.42
2023-03-06T07:50:22.082Z,0.93
2023-03-06T07:52:50.215Z,3.28
2023-03-06T07:55:17.651Z,1.25
2023-03-06T07:57:44.777Z,2.15
2023-03-06T08:00:14.694Z,2.90
2023-03-06T08:02:43.110Z,4.88
2023-03-06T08:05:14.763Z,2.92
2023-03-06T08:07:42.618Z,3.25
2023-03-06T08:10:12.220Z,4.65
2023-03-06T08:12:39.214Z,3.03
2023-03-06T08:15:06.958Z,2.28
2023-03-06T08:17:33.836Z,2.78
2023-03-06T08:20:00.926Z,2.35
2023-03-06T08:22:27.788Z,3.58
2023-03-06T08:24:56.836Z,2.70
2023-03-06T08:27:24.369Z,4.68
2023-03-06T08:29:51.153Z,5.60
2023-03-06T08:32:19.309Z,2.13
2023-03-06T08:34:47.092Z,3.58
2023-03-06T08:37:14.043Z,0.50
2023-03-06T08:39:40.762Z,2.83
2023-03-06T08:42:10.779Z,0.60
2023-03-06T08:44:38.051Z,0.43
2023-03-06T08:47:05.542Z,1.08
2023-03-06T08:49:32.469Z,1.98
2023-03-06T08:51:59.299Z,2.40
2023-03-06T08:54:26.081Z,0.70
2023-03-06T08:56:53.323Z,0.60
2023-03-06T08:59:20.181Z,0.90
2023-03-06T09:01:46.928Z,2.55
2023-03-06T09:04:14.225Z,1.40
2023-03-06T09:06:43.199Z,1.42
2023-03-06T09:09:10.587Z,4.10
2023-03-06T09:11:37.917Z,1.95
2023-03-06T09:14:06.121Z,0.30
2023-03-06T09:16:33.472Z,0.52
2023-03-06T09:19:01.479Z,1.45
2023-03-06T09:21:28.824Z,1.90
2023-03-06T09:23:56.048Z,0.73
2023-03-06T09:26:26.191Z,1.75
2023-03-06T09:29:00.054Z,0.20
2023-03-06T09:31:26.897Z,1.38
2023-03-06T09:33:53.744Z,3.03
2023-03-06T09:36:22.479Z,0.63
2023-03-06T09:38:50.411Z,0.45
2023-03-06T09:41:26.429Z,0.60
2023-03-06T09:44:06.396Z,1.15
2023-03-06T09:46:58.042Z,1.38
2023-03-06T09:49:30.570Z,1.17
2023-03-06T09:52:11.116Z,0.45
2023-03-06T09:54:46.618Z,0.68
2023-03-06T09:57:27.869Z,1.50
2023-03-06T10:00:03.889Z,0.40
2023-03-06T10:02:42.089Z,0.50
2023-03-06T10:05:17.738Z,0.73
2023-03-06T10:07:51.366Z,1.42
2023-03-06T10:10:22.473Z,1.15
2023-03-06T10:13:02.529Z,1.27
2023-03-06T10:15:34.552Z,0.45
2023-03-06T10:18:02.992Z,0.85
2023-03-06T10:21:02.550Z,1.05
2023-03-06T10:24:02.898Z,0.22
2023-03-06T10:26:38.129Z,1.10
2023-03-06T10:29:14.740Z,1.63
2023-03-06T10:31:49.555Z,0.47
2023-03-06T10:34:29.549Z,1.38
2023-03-06T10:37:01.670Z,3.17
2023-03-06T10:39:30.418Z,1.95
2023-03-06T10:41:57.659Z,1.30
2023-03-06T10:44:25.191Z,1.30
2023-03-06T10:46:53.766Z,1.35
2023-03-06T10:49:35.079Z,1.90
2023-03-06T10:52:14.004Z,2.72
2023-03-06T10:54:44.329Z,2.05
2023-03-06T10:57:20.926Z,6.00
2023-03-06T10:59:56.051Z,4.20
2023-03-06T11:02:38.641Z,4.40
2023-03-06T11:05:06.766Z,1.92
2023-03-06T11:07:35.571Z,1.23
2023-03-06T11:10:19.232Z,1.75
2023-03-06T11:15:29.609Z,0.20
2023-03-06T11:18:08.780Z,0.95
2023-03-06T11:20:52.002Z,1.60
2023-03-06T11:23:38.440Z,1.35
2023-03-06T11:26:46.347Z,4.57
2023-03-06T11:34:34.563Z,1.48
2023-03-06T11:37:08.505Z,2.40
2023-03-06T11:39:57.020Z,1.38
2023-03-06T11:42:30.829Z,2.70
2023-03-06T11:45:16.299Z,2.83
2023-03-06T11:47:49.356Z,1.65
2023-03-06T11:50:25.797Z,5.18
2023-03-06T11:53:01.695Z,5.65
2023-03-06T11:55:31.425Z,3.00
2023-03-06T11:58:29.082Z,4.75
2023-03-06T12:01:34.213Z,5.18
2023-03-06T12:04:52.668Z,13.57
2023-03-06T12:07:41.112Z,5.20
2023-03-06T12:10:35.287Z,5.57
2023-03-06T12:13:34.374Z,4.68
2023-03-06T12:16:27.134Z,6.25
2023-03-06T12:19:00.361Z,6.18
2023-03-06T12:21:49.121Z,6.15
2023-03-06T12:24:50.779Z,5.22
2023-03-06T12:27:28.288Z,3.67
2023-03-06T12:30:16.130Z,4.20
2023-03-06T12:32:58.473Z,4.25
2023-03-06T12:35:50.766Z,3.47
2023-03-06T12:38:49.714Z,4.40
2023-03-06T12:41:28.807Z,4.53
2023-03-06T12:44:07.695Z,6.30
2023-03-06T12:46:41.788Z,5.07
2023-03-06T12:49:31.907Z,5.07
2023-03-06T12:52:01.053Z,6.28
2023-03-06T12:54:31.288Z,6.72
2023-03-06T12:57:01.132Z,6.25
2023-03-06T12:59:48.855Z,4.38
2023-03-06T13:02:37.232Z,6.25
2023-03-06T13:05:29.303Z,6.13
2023-03-06T13:08:20.721Z,3.78
2023-03-06T13:11:09.390Z,7.05
2023-03-06T13:13:52.820Z,3.20
2023-03-06T13:16:25.518Z,5.10
2023-03-06T13:18:58.535Z,5.20
2023-03-06T13:21:57.525Z,4.40
2023-03-06T13:24:37.237Z,2.70
2023-03-06T13:27:12.502Z,2.75
2023-03-06T13:29:39.811Z,4.18
2023-03-06T13:32:18.021Z,4.38
2023-03-06T13:34:50.174Z,7.80
2023-03-06T13:37:16.981Z,6.40
2023-03-06T13:39:56.202Z,7.43
2023-03-06T13:42:32.295Z,6.78
2023-03-06T13:45:24.450Z,6.28
2023-03-06T13:48:15.838Z,8.05
2023-03-06T13:53:58.325Z,5.55
2023-03-06T13:56:44.486Z,5.30
2023-03-06T13:59:13.848Z,4.70
2023-03-06T14:01:59.377Z,4.95
2023-03-06T14:04:55.364Z,6.15
2023-03-06T14:07:26.356Z,3.17
2023-03-06T14:10:08.376Z,3.95
2023-03-06T14:12:38.987Z,5.32
2023-03-06T14:15:46.010Z,4.07
2023-03-06T14:18:18.386Z,3.97
2023-03-06T14:20:55.310Z,2.80
2023-03-06T14:23:22.128Z,3.03
2023-03-06T14:26:06.948Z,1.77
2023-03-06T14:28:36.221Z,2.35
2023-03-06T14:31:05.360Z,3.47
2023-03-06T14:33:37.507Z,2.67
2023-03-06T14:36:10.162Z,1.98
2023-03-06T14:38:46.959Z,2.92
2023-03-06T14:41:25.253Z,3.20
2023-03-06T14:43:52.332Z,5.60
2023-03-06T14:46:21.952Z,3.08
2023-03-06T14:48:50.076Z,3.90
2023-03-06T14:51:22.295Z,3.35
2023-03-06T14:53:54.162Z,4.05
2023-03-06T14:59:06.130Z,7.53
2023-03-06T15:01:44.013Z,6.25
2023-03-06T15:04:23.039Z,7.03
2023-03-06T15:06:50.533Z,8.18
2023-03-06T15:09:21.039Z,5.15
2023-03-06T15:12:26.471Z,5.43
2023-03-06T15:15:10.443Z,6.65
2023-03-06T15:20:41.438Z,8.07
2023-03-06T15:23:21.997Z,5.40
2023-03-06T15:26:00.236Z,7.35
2023-03-06T15:28:42.588Z,4.93
2023-03-06T15:31:28.400Z,4.93
2023-03-06T15:34:07.768Z,4.78
2023-03-06T15:36:36.013Z,3.38
2023-03-06T15:39:28.643Z,7.00
2023-03-06T15:42:25.359Z,3.60
2023-03-06T15:44:58.218Z,2.55
2023-03-06T15:47:25.177Z,3.63
2023-03-06T15:49:53.247Z,8.32
2023-03-06T15:52:25.163Z,5.95
2023-03-06T15:54:52.092Z,4.55
2023-03-06T15:57:26.787Z,5.35
2023-03-06T15:59:54.336Z,3.60
2023-03-06T16:02:22.570Z,3.30
2023-03-06T16:04:49.983Z,2.80
2023-03-06T16:07:17.206Z,7.90
2023-03-06T16:09:44.608Z,4.25
2023-03-06T16:12:20.687Z,5.88
2023-03-06T16:14:48.812Z,5.82
2023-03-06T16:17:17.153Z,8.20
2023-03-06T16:19:45.161Z,9.35
2023-03-06T16:22:12.062Z,10.15
2023-03-06T16:24:38.858Z,10.68
2023-03-06T16:27:07.172Z,12.90
2023-03-06T16:29:35.465Z,11.30
2023-03-06T16:32:03.155Z,12.30
2023-03-06T16:34:31.370Z,14.75
2023-03-06T16:36:58.276Z,8.55
2023-03-06T16:39:25.559Z,13.88
2023-03-06T16:41:55.933Z,11.52
2023-03-06T16:44:23.085Z,11.07
2023-03-06T16:46:51.381Z,11.68
2023-03-06T16:49:20.008Z,14.88
2023-03-06T16:51:54.227Z,14.27
2023-03-06T16:54:23.821Z,16.38
2023-03-06T16:56:50.734Z,14.70
2023-03-06T16:59:17.839Z,15.75
2023-03-06T17:01:44.856Z,12.93
2023-03-06T17:04:12.477Z,15.10
2023-03-06T17:06:41.452Z,15.70
2023-03-06T17:09:08.087Z,17.35
2023-03-06T17:11:38.460Z,16.95
2023-03-06T17:14:07.043Z,18.73
2023-03-06T17:16:35.113Z,18.25
2023-03-06T17:19:03.393Z,18.25
2023-03-06T17:21:30.481Z,17.92
2023-03-06T17:23:57.908Z,26.23
2023-03-06T17:26:26.092Z,14.35
2023-03-06T17:28:53.033Z,17.70
2023-03-06T17:31:26.345Z,15.98
2023-03-06T17:33:57.184Z,18.00
2023-03-06T17:36:24.278Z,21.17
2023-03-06T17:38:54.446Z,18.65
2023-03-06T17:41:24.609Z,15.93
2023-03-06T17:43:52.608Z,23.92
2023-03-06T17:46:19.616Z,18.13
2023-03-06T17:48:46.788Z,23.17
2023-03-06T17:51:14.297Z,20.05
2023-03-06T17:53:41.361Z,21.35
2023-03-06T17:56:10.017Z,18.52
2023-03-06T17:58:37.358Z,24.48
2023-03-06T18:01:12.884Z,19.88
2023-03-06T18:03:39.693Z,24.08
2023-03-06T18:06:09.543Z,20.45
2023-03-06T18:08:37.584Z,23.73
2023-03-06T18:11:07.554Z,20.95
2023-03-06T18:13:37.258Z,21.73
2023-03-06T18:16:05.289Z,22.63
2023-03-06T18:18:32.232Z,21.52
2023-03-06T18:21:06.910Z,24.33
2023-03-06T18:23:34.343Z,22.85
2023-03-06T18:26:23.242Z,22.85
2023-03-06T18:28:55.484Z,18.10
2023-03-06T18:31:28.580Z,26.02
2023-03-06T18:33:58.573Z,12.48
2023-03-06T18:36:27.950Z,16.25
2023-03-06T18:38:55.730Z,16.77
2023-03-06T18:41:23.219Z,23.27
2023-03-06T18:43:55.322Z,19.17
2023-03-06T18:46:22.934Z,24.38
2023-03-06T18:48:52.225Z,19.63
2023-03-06T18:51:20.215Z,25.05
2023-03-06T18:53:47.572Z,24.08
2023-03-06T18:56:17.201Z,23.65
2023-03-06T18:58:44.684Z,25.90
2023-03-06T19:01:12.156Z,20.95
2023-03-06T19:03:39.489Z,25.40
2023-03-06T19:06:12.525Z,23.95
2023-03-06T19:08:40.785Z,25.00
2023-03-06T19:11:13.687Z,19.23
2023-03-06T19:13:44.760Z,15.52
2023-03-06T19:16:20.519Z,12.63
2023-03-06T19:18:48.213Z,20.73
2023-03-06T19:21:20.992Z,23.83
2023-03-06T19:23:48.961Z,24.92
2023-03-06T19:26:18.829Z,21.77
2023-03-06T19:28:46.435Z,18.40
2023-03-06T19:31:14.866Z,19.65
2023-03-06T19:33:42.970Z,17.77
2023-03-06T19:36:12.211Z,22.17
2023-03-06T19:38:39.833Z,28.08
2023-03-06T19:41:12.055Z,19.08
2023-03-06T19:43:42.926Z,23.75
2023-03-06T19:46:14.035Z,26.88
2023-03-06T19:48:44.365Z,18.65
2023-03-06T19:51:11.985Z,13.48
2023-03-06T19:53:39.969Z,15.20
2023-03-06T19:56:28.523Z,9.82
2023-03-06T19:58:56.085Z,11.50
2023-03-06T20:01:25.074Z,10.63
2023-03-06T20:03:59.085Z,11.32
2023-03-06T20:06:29.250Z,8.40
2023-03-06T20:08:56.334Z,7.93
2023-03-06T20:11:29.964Z,9.75
2023-03-06T20:13:58.623Z,4.57
2023-03-06T20:16:28.126Z,2.60
2023-03-06T20:18:58.216Z,4.85
2023-03-06T20:21:34.443Z,1.48
2023-03-06T20:24:01.618Z,6.32
2023-03-06T20:26:29.983Z,3.15
2023-03-06T20:28:58.117Z,4.35
2023-03-06T20:31:30.292Z,5.35
2023-03-06T20:33:58.925Z,0.73
2023-03-06T20:36:29.117Z,4.88
2023-03-06T20:38:59.100Z,0.38
2023-03-06T20:41:28.682Z,3.38
2023-03-06T20:44:01.970Z,3.08
2023-03-06T20:46:29.587Z,2.17
2023-03-06T20:48:58.292Z,3.72
2023-03-06T20:51:31.785Z,8.77
2023-03-06T20:54:01.049Z,6.20
2023-03-06T20:56:31.216Z,3.20
2023-03-06T20:58:58.996Z,5.25
2023-03-06T21:01:32.806Z,3.45
2023-03-06T21:04:00.215Z,4.03
2023-03-06T21:06:28.946Z,2.80
2023-03-06T21:08:57.059Z,1.92
2023-03-06T21:11:24.637Z,1.83
2023-03-06T21:13:53.424Z,7.20
2023-03-06T21:16:22.413Z,8.52
2023-03-06T21:18:49.243Z,5.95
2023-03-06T21:21:26.422Z,3.28
2023-03-06T21:23:53.232Z,5.28
2023-03-06T21:26:24.832Z,2.88
2023-03-06T21:28:52.048Z,4.22
2023-03-06T21:31:21.066Z,5.93
2023-03-06T21:33:49.534Z,3.58
2023-03-06T21:36:18.748Z,7.15
2023-03-06T21:38:46.872Z,2.45
2023-03-06T21:41:24.940Z,11.20
2023-03-06T21:46:27.036Z,8.63
2023-03-06T21:48:55.381Z,2.08
2023-03-06T21:51:23.886Z,6.50
2023-03-06T21:53:51.752Z,3.33
2023-03-06T21:56:20.847Z,6.72
2023-03-06T21:58:48.240Z,4.13
2023-03-06T22:01:22.659Z,2.58
2023-03-06T22:03:49.790Z,1.27
2023-03-06T22:06:20.425Z,2.85
2023-03-06T22:08:47.543Z,3.47
2023-03-06T22:11:17.611Z,3.95
2023-03-06T22:13:44.858Z,2.35
2023-03-06T22:16:12.836Z,1.67
2023-03-06T22:18:45.604Z,3.30
2023-03-06T22:21:15.704Z,2.60
2023-03-06T22:23:44.987Z,1.48
2023-03-06T22:26:12.985Z,4.47
2023-03-06T22:28:40.866Z,2.80
2023-03-06T22:31:18.663Z,3.47
2023-03-06T22:33:46.082Z,3.00
2023-03-06T22:36:15.565Z,1.85
2023-03-06T22:38:45.523Z,1.58
2023-03-06T22:41:14.015Z,6.95
2023-03-06T22:43:40.853Z,4.15
2023-03-06T22:46:11.476Z,2.42
2023-03-06T22:48:38.383Z,2.38
2023-03-06T22:51:07.832Z,3.92
2023-03-06T22:53:35.115Z,2.60
2023-03-06T22:56:04.615Z,1.80
2023-03-06T22:58:37.513Z,1.88
2023-03-06T23:01:09.040Z,4.55
2023-03-06T23:03:40.916Z,2.65
2023-03-06T23:06:16.502Z,2.10
2023-03-06T23:08:45.209Z,2.13
2023-03-06T23:11:15.299Z,2.05
2023-03-06T23:14:01.016Z,2.25
2023-03-06T23:16:49.879Z,2.33
2023-03-06T23:19:35.396Z,3.97
2023-03-06T23:22:20.766Z,2.42
2023-03-06T23:25:06.513Z,4.30
2023-03-06T23:27:35.579Z,3.03
2023-03-06T23:30:03.270Z,3.30
2023-03-06T23:32:32.598Z,2.90
2023-03-06T23:34:59.951Z,2.88
2023-03-06T23:37:27.087Z,1.40
2023-03-06T23:39:54.334Z,3.38
2023-03-06T23:42:22.659Z,3.75
2023-03-06T23:44:50.656Z,1.90
2023-03-06T23:47:17.595Z,6.47
2023-03-06T23:49:44.349Z,3.75
2023-03-06T23:52:14.475Z,3.45
2023-03-06T23:54:41.276Z,8.63
2023-03-06T23:57:08.774Z,8.80
2023-03-06T23:59:35.952Z,6.32
